Pagina principale
METAR-TAF:

METAR-TAF

Aeroporti :

Aeroporto di Marsiglia Provenza

Marsiglia, Francia

latitudine: 43-27N, longitudine: 005-14E, altezza: 6 m

Osservazione

Il bollettino è stato emesso 12 minuti fa, alle 13:00 UTC
Vento 16 kt da ovest
Temperature 28°C
Umidità 45%
Pressione 1015 hPa
Visibilità 10 km o più
nessuna nube inferiore a 1500 m e nessun cumulonembo

METAR: LFML 161300Z AUTO 28016KT CAVOK 28/15 Q1015 NOSIG

Ora: 15:12 (13:12 UTC)

Previsione

Il bollettino è stato emesso 5 ore e 12 minuti fa, alle 08:00 UTC
Previsione valida dal 16 alle 09 UTC al 17 alle 15 UTC
Vento 10 kt da nord-ovest
Visibilità 10 km o più
nessuna nube inferiore a 1500 m e nessun cumulonembo
Evoluzione graduale
dal 16 alle 20 UTC al 16 alle 22 UTC
Vento 5 kt da direzioni variabili
Evoluzione graduale
dal 17 alle 13 UTC al 17 alle 15 UTC
Vento 10 kt da ovest/sud-ovest

TAF: LFML 160800Z 1609/1715 32010KT CAVOK TX30/1615Z TN17/1703Z BECMG 1620/1622 VRB05KT BECMG 1713/1715 24010KT

Osservazioni e previsioni meteorologiche di più di 4000 aeroporti (messaggi METAR e TAF).

Le stazioni disponibili sono rappresentate dai dischi gialli e rossi sulla carta.

Puntare il mouse per vedere il nome della stazione.

Clicca sopra per visualizzare le osservazioni e previsioni meteorologiche.

Per cambiare la mappa : fare clic sui pulsanti verdi con una croce nera per ingrandire, il pulsante verde con un trattino per diminuire, o sulla freccia verde per le mappe adiacenti.


METAR-TAF: